KTOI/TOI METAR and TAF weather

Enter ICAO airport designator
Station Type Date Time Source
KTOI METAR 2018/12/13 05:53 UTC NOAA

KTOI 130553Z AUTO 00000KT 10SM CLR 08/02 A3018 RMK AO2 SLP219 T00830022 10089 20061 401391028 58007


Station Type Date Time Source
KTOI Decoded METAR 2018/12/13 05:53 UTC NOAA

TROY MUNICIPAL AIRPORT, AL, United States (KTOI) 31-52N 086-01W 118M
Dec 13, 2018 - 12:53 AM EST / 2018.12.13 0553 UTC
Wind: Calm:0
Visibility: 10 mile(s):0
Sky conditions: clear
Temperature: 46.9 F (8.3 C)
Dew Point: 36.0 F (2.2 C)
Relative Humidity: 65%
Pressure (altimeter): 30.18 in. Hg (1022 hPa)
Pressure tendency: 0.02 inches (0.7 hPa) lower than three hours ago
ob: KTOI 130553Z AUTO 00000KT 10SM CLR 08/02 A3018 RMK AO2 SLP219 T00830022 10089 20061 401391028 58007
cycle: 6

Station Type Date Time Source
KTOI TAF 2018/12/13 06:22 UTC NOAA

TAF KTOI 130520Z 1306/1406 13003KT P6SM BKN250
FM131400 13010KT P6SM SCT025 OVC170
FM140300 10010KT P6SM -RA OVC025


Example: see airport list